sensor_id;sensor_type;location;lat;lon;timestamp;pressure;altitude;pressure_sealevel;temperature;humidity
75513;BME280;64090;49.770;18.760;2023-02-14T00:01:25;99455.73;;;2.91;89.64
75513;BME280;64090;49.770;18.760;2023-02-14T00:04:28;99456.13;;;2.88;89.80
75513;BME280;64090;49.770;18.760;2023-02-14T00:07:31;99453.37;;;2.88;90.11
75513;BME280;64090;49.770;18.760;2023-02-14T00:10:34;99450.30;;;2.89;89.90
75513;BME280;64090;49.770;18.760;2023-02-14T00:13:37;99449.26;;;2.84;90.03
75513;BME280;64090;49.770;18.760;2023-02-14T00:16:40;99447.67;;;2.79;90.09
75513;BME280;64090;49.770;18.760;2023-02-14T00:19:43;99444.94;;;2.76;90.07
75513;BME280;64090;49.770;18.760;2023-02-14T00:22:46;99450.73;;;2.76;89.97
75513;BME280;64090;49.770;18.760;2023-02-14T00:25:50;99447.95;;;2.75;89.84
75513;BME280;64090;49.770;18.760;2023-02-14T00:28:53;99451.00;;;2.74;89.92
75513;BME280;64090;49.770;18.760;2023-02-14T00:31:56;99453.31;;;2.74;89.93
75513;BME280;64090;49.770;18.760;2023-02-14T00:34:59;99451.71;;;2.74;89.63
75513;BME280;64090;49.770;18.760;2023-02-14T00:38:02;99446.83;;;2.74;90.09
75513;BME280;64090;49.770;18.760;2023-02-14T00:41:05;99451.56;;;2.74;89.93
75513;BME280;64090;49.770;18.760;2023-02-14T00:44:10;99455.10;;;2.73;89.91
75513;BME280;64090;49.770;18.760;2023-02-14T00:47:13;99452.77;;;2.69;90.20
75513;BME280;64090;49.770;18.760;2023-02-14T00:50:16;99454.87;;;2.69;90.01
75513;BME280;64090;49.770;18.760;2023-02-14T00:53:19;99450.13;;;2.67;90.39
75513;BME280;64090;49.770;18.760;2023-02-14T00:56:22;99450.30;;;2.67;90.39
75513;BME280;64090;49.770;18.760;2023-02-14T00:59:25;99443.42;;;2.66;90.24
75513;BME280;64090;49.770;18.760;2023-02-14T01:02:28;99442.48;;;2.64;90.21
75513;BME280;64090;49.770;18.760;2023-02-14T01:05:31;99439.50;;;2.65;90.11
75513;BME280;64090;49.770;18.760;2023-02-14T01:08:34;99442.58;;;2.65;90.27
75513;BME280;64090;49.770;18.760;2023-02-14T01:11:37;99442.41;;;2.65;90.13
75513;BME280;64090;49.770;18.760;2023-02-14T01:14:40;99442.81;;;2.67;90.40
75513;BME280;64090;49.770;18.760;2023-02-14T01:17:43;99440.01;;;2.62;90.44
75513;BME280;64090;49.770;18.760;2023-02-14T01:20:46;99444.16;;;2.60;90.35
75513;BME280;64090;49.770;18.760;2023-02-14T01:23:51;99441.46;;;2.59;90.49
75513;BME280;64090;49.770;18.760;2023-02-14T01:26:55;99445.19;;;2.61;90.71
75513;BME280;64090;49.770;18.760;2023-02-14T01:29:57;99441.91;;;2.60;90.99
75513;BME280;64090;49.770;18.760;2023-02-14T01:33:00;99442.70;;;2.59;90.93
75513;BME280;64090;49.770;18.760;2023-02-14T01:36:04;99439.84;;;2.57;90.93
75513;BME280;64090;49.770;18.760;2023-02-14T01:39:11;99438.55;;;2.58;91.07
75513;BME280;64090;49.770;18.760;2023-02-14T01:42:15;99438.59;;;2.57;91.19
75513;BME280;64090;49.770;18.760;2023-02-14T01:45:21;99438.32;;;2.56;91.18
75513;BME280;64090;49.770;18.760;2023-02-14T01:48:24;99432.83;;;2.55;91.22
75513;BME280;64090;49.770;18.760;2023-02-14T01:51:28;99431.91;;;2.51;91.38
75513;BME280;64090;49.770;18.760;2023-02-14T01:54:34;99430.42;;;2.50;91.35
75513;BME280;64090;49.770;18.760;2023-02-14T01:57:43;99424.88;;;2.53;91.55
75513;BME280;64090;49.770;18.760;2023-02-14T02:00:47;99426.58;;;2.54;91.92
75513;BME280;64090;49.770;18.760;2023-02-14T02:04:06;99425.40;;;2.56;92.14
75513;BME280;64090;49.770;18.760;2023-02-14T02:07:18;99421.81;;;2.59;92.15
75513;BME280;64090;49.770;18.760;2023-02-14T02:10:23;99424.02;;;2.64;92.10
75513;BME280;64090;49.770;18.760;2023-02-14T02:13:26;99420.72;;;2.65;92.14
75513;BME280;64090;49.770;18.760;2023-02-14T02:50:58;99425.98;;;2.72;90.48
75513;BME280;64090;49.770;18.760;2023-02-14T02:54:39;99423.26;;;2.71;90.50
75513;BME280;64090;49.770;18.760;2023-02-14T02:57:45;99426.71;;;2.69;90.41
75513;BME280;64090;49.770;18.760;2023-02-14T03:00:52;99429.61;;;2.63;90.25
75513;BME280;64090;49.770;18.760;2023-02-14T03:04:02;99431.98;;;2.55;90.42
75513;BME280;64090;49.770;18.760;2023-02-14T03:07:34;99438.92;;;2.48;90.50
75513;BME280;64090;49.770;18.760;2023-02-14T03:10:37;99436.30;;;2.46;90.61
75513;BME280;64090;49.770;18.760;2023-02-14T03:14:05;99437.23;;;2.45;90.76
75513;BME280;64090;49.770;18.760;2023-02-14T03:17:33;99436.30;;;2.48;90.57
75513;BME280;64090;49.770;18.760;2023-02-14T03:27:33;99429.65;;;2.51;90.32
75513;BME280;64090;49.770;18.760;2023-02-14T03:37:27;99425.27;;;2.49;90.04
75513;BME280;64090;49.770;18.760;2023-02-14T03:40:53;99426.05;;;2.45;90.12
75513;BME280;64090;49.770;18.760;2023-02-14T03:44:02;99424.24;;;2.43;90.15
75513;BME280;64090;49.770;18.760;2023-02-14T03:47:08;99424.11;;;2.40;89.97
75513;BME280;64090;49.770;18.760;2023-02-14T03:50:15;99423.59;;;2.35;90.33
75513;BME280;64090;49.770;18.760;2023-02-14T03:53:22;99426.20;;;2.33;90.58
75513;BME280;64090;49.770;18.760;2023-02-14T03:56:35;99425.55;;;2.32;90.45
75513;BME280;64090;49.770;18.760;2023-02-14T03:59:59;99423.36;;;2.31;90.58
75513;BME280;64090;49.770;18.760;2023-02-14T04:03:47;99423.91;;;2.31;90.32
75513;BME280;64090;49.770;18.760;2023-02-14T04:07:51;99419.63;;;2.32;90.35
75513;BME280;64090;49.770;18.760;2023-02-14T04:11:33;99420.17;;;2.31;90.23
75513;BME280;64090;49.770;18.760;2023-02-14T04:15:37;99417.57;;;2.27;90.43
75513;BME280;64090;49.770;18.760;2023-02-14T04:19:26;99420.33;;;2.22;90.61
75513;BME280;64090;49.770;18.760;2023-02-14T04:23:06;99420.48;;;2.20;90.62
75513;BME280;64090;49.770;18.760;2023-02-14T04:26:50;99421.27;;;2.14;90.87
75513;BME280;64090;49.770;18.760;2023-02-14T04:30:53;99418.83;;;2.09;90.92
75513;BME280;64090;49.770;18.760;2023-02-14T04:34:56;99416.98;;;2.03;90.89
75513;BME280;64090;49.770;18.760;2023-02-14T04:38:39;99416.67;;;2.00;90.82
75513;BME280;64090;49.770;18.760;2023-02-14T04:42:45;99419.77;;;2.01;90.78
75513;BME280;64090;49.770;18.760;2023-02-14T04:46:47;99416.90;;;2.02;90.74
75513;BME280;64090;49.770;18.760;2023-02-14T04:50:31;99418.73;;;2.03;90.68
75513;BME280;64090;49.770;18.760;2023-02-14T04:54:14;99421.34;;;2.01;90.64
75513;BME280;64090;49.770;18.760;2023-02-14T04:57:39;99427.98;;;2.01;90.79
75513;BME280;64090;49.770;18.760;2023-02-14T05:01:24;99426.14;;;2.02;90.60
75513;BME280;64090;49.770;18.760;2023-02-14T05:05:28;99426.25;;;1.98;90.78
75513;BME280;64090;49.770;18.760;2023-02-14T05:09:32;99427.19;;;1.94;90.98
75513;BME280;64090;49.770;18.760;2023-02-14T05:13:38;99431.64;;;1.93;90.90
75513;BME280;64090;49.770;18.760;2023-02-14T05:17:23;99432.02;;;1.96;91.20
75513;BME280;64090;49.770;18.760;2023-02-14T05:21:25;99434.56;;;1.91;91.44
75513;BME280;64090;49.770;18.760;2023-02-14T05:25:11;99438.69;;;1.93;91.17
75513;BME280;64090;49.770;18.760;2023-02-14T05:28:15;99444.67;;;1.95;91.17
75513;BME280;64090;49.770;18.760;2023-02-14T05:31:18;99449.92;;;1.94;91.22
75513;BME280;64090;49.770;18.760;2023-02-14T05:34:21;99454.00;;;1.96;91.10
75513;BME280;64090;49.770;18.760;2023-02-14T05:37:24;99452.23;;;1.99;90.72
75513;BME280;64090;49.770;18.760;2023-02-14T05:40:27;99450.84;;;2.01;90.79
75513;BME280;64090;49.770;18.760;2023-02-14T05:43:30;99453.41;;;2.02;90.73
75513;BME280;64090;49.770;18.760;2023-02-14T05:46:33;99454.98;;;2.00;90.86
75513;BME280;64090;49.770;18.760;2023-02-14T05:49:36;99458.55;;;1.99;90.74
75513;BME280;64090;49.770;18.760;2023-02-14T05:52:39;99459.27;;;1.96;90.98
75513;BME280;64090;49.770;18.760;2023-02-14T05:55:43;99466.85;;;1.92;91.03
75513;BME280;64090;49.770;18.760;2023-02-14T05:58:46;99467.78;;;1.89;91.10
75513;BME280;64090;49.770;18.760;2023-02-14T06:01:49;99470.91;;;1.89;90.89
75513;BME280;64090;49.770;18.760;2023-02-14T06:04:52;99468.15;;;1.89;91.15
75513;BME280;64090;49.770;18.760;2023-02-14T06:07:55;99467.26;;;1.89;91.03
75513;BME280;64090;49.770;18.760;2023-02-14T06:10:58;99468.00;;;1.88;90.83
75513;BME280;64090;49.770;18.760;2023-02-14T06:14:01;99465.96;;;1.90;90.86
75513;BME280;64090;49.770;18.760;2023-02-14T06:17:04;99468.00;;;1.91;90.72
75513;BME280;64090;49.770;18.760;2023-02-14T06:20:08;99469.33;;;1.89;90.75
75513;BME280;64090;49.770;18.760;2023-02-14T06:23:11;99475.52;;;1.89;90.73
75513;BME280;64090;49.770;18.760;2023-02-14T06:26:14;99479.75;;;1.88;90.61
75513;BME280;64090;49.770;18.760;2023-02-14T06:29:17;99479.07;;;1.87;90.56
75513;BME280;64090;49.770;18.760;2023-02-14T06:32:20;99479.45;;;1.87;90.65
75513;BME280;64090;49.770;18.760;2023-02-14T06:35:23;99478.27;;;1.89;90.61
75513;BME280;64090;49.770;18.760;2023-02-14T06:38:27;99484.38;;;1.89;90.56
75513;BME280;64090;49.770;18.760;2023-02-14T06:41:29;99487.55;;;1.89;90.50
75513;BME280;64090;49.770;18.760;2023-02-14T06:44:33;99488.38;;;1.87;90.78
75513;BME280;64090;49.770;18.760;2023-02-14T06:47:36;99491.60;;;1.83;90.82
75513;BME280;64090;49.770;18.760;2023-02-14T06:50:39;99492.81;;;1.81;90.91
75513;BME280;64090;49.770;18.760;2023-02-14T06:53:42;99493.29;;;1.82;90.65
75513;BME280;64090;49.770;18.760;2023-02-14T06:56:45;99494.80;;;1.83;90.68
75513;BME280;64090;49.770;18.760;2023-02-14T06:59:48;99488.61;;;1.81;90.89
75513;BME280;64090;49.770;18.760;2023-02-14T07:02:51;99488.35;;;1.82;90.64
75513;BME280;64090;49.770;18.760;2023-02-14T07:05:54;99490.04;;;1.83;90.68
75513;BME280;64090;49.770;18.760;2023-02-14T07:08:57;99489.36;;;1.85;90.67
75513;BME280;64090;49.770;18.760;2023-02-14T07:12:00;99487.18;;;1.87;90.40
75513;BME280;64090;49.770;18.760;2023-02-14T07:15:03;99479.30;;;1.89;90.49
75513;BME280;64090;49.770;18.760;2023-02-14T07:18:06;99484.39;;;1.91;90.33
75513;BME280;64090;49.770;18.760;2023-02-14T07:21:12;99487.83;;;1.95;90.39
75513;BME280;64090;49.770;18.760;2023-02-14T07:24:15;99485.50;;;1.96;90.21
75513;BME280;64090;49.770;18.760;2023-02-14T07:27:18;99490.14;;;1.97;90.10
75513;BME280;64090;49.770;18.760;2023-02-14T07:30:21;99485.16;;;1.98;90.10
75513;BME280;64090;49.770;18.760;2023-02-14T07:33:25;99485.52;;;2.03;90.15
75513;BME280;64090;49.770;18.760;2023-02-14T07:36:28;99488.98;;;2.08;89.93
75513;BME280;64090;49.770;18.760;2023-02-14T07:39:31;99487.45;;;2.13;89.70
75513;BME280;64090;49.770;18.760;2023-02-14T07:42:34;99486.69;;;2.16;89.84
75513;BME280;64090;49.770;18.760;2023-02-14T07:45:37;99482.39;;;2.23;89.70
75513;BME280;64090;49.770;18.760;2023-02-14T07:48:40;99485.52;;;2.25;89.46
75513;BME280;64090;49.770;18.760;2023-02-14T07:51:43;99488.67;;;2.30;89.51
75513;BME280;64090;49.770;18.760;2023-02-14T07:54:46;99486.41;;;2.32;88.96
75513;BME280;64090;49.770;18.760;2023-02-14T07:57:49;99484.48;;;2.35;88.72
75513;BME280;64090;49.770;18.760;2023-02-14T08:00:53;99488.02;;;2.42;88.49
75513;BME280;64090;49.770;18.760;2023-02-14T08:03:56;99492.67;;;2.46;88.38
75513;BME280;64090;49.770;18.760;2023-02-14T08:06:59;99487.65;;;2.50;88.43
75513;BME280;64090;49.770;18.760;2023-02-14T08:10:03;99492.98;;;2.55;88.36
75513;BME280;64090;49.770;18.760;2023-02-14T08:13:06;99494.55;;;2.63;88.21
75513;BME280;64090;49.770;18.760;2023-02-14T08:16:09;99486.73;;;2.67;87.84
75513;BME280;64090;49.770;18.760;2023-02-14T08:19:14;99490.90;;;2.72;88.04
75513;BME280;64090;49.770;18.760;2023-02-14T08:22:17;99490.26;;;2.81;87.64
75513;BME280;64090;49.770;18.760;2023-02-14T08:25:21;99490.25;;;2.91;87.76
75513;BME280;64090;49.770;18.760;2023-02-14T08:28:24;99489.05;;;3.02;87.70
75513;BME280;64090;49.770;18.760;2023-02-14T08:31:29;99487.20;;;3.11;86.59
75513;BME280;64090;49.770;18.760;2023-02-14T08:34:38;99485.63;;;3.20;86.25
75513;BME280;64090;49.770;18.760;2023-02-14T08:37:41;99494.64;;;3.36;86.61
75513;BME280;64090;49.770;18.760;2023-02-14T08:40:43;99497.60;;;3.38;85.66
75513;BME280;64090;49.770;18.760;2023-02-14T08:43:46;99501.42;;;3.48;85.30
75513;BME280;64090;49.770;18.760;2023-02-14T08:46:49;99500.81;;;3.49;85.15
75513;BME280;64090;49.770;18.760;2023-02-14T08:49:52;99501.26;;;3.59;85.15
75513;BME280;64090;49.770;18.760;2023-02-14T08:52:55;99504.23;;;3.68;85.08
75513;BME280;64090;49.770;18.760;2023-02-14T08:56:07;99506.95;;;3.79;83.55
75513;BME280;64090;49.770;18.760;2023-02-14T08:59:11;99507.77;;;3.79;83.56
75513;BME280;64090;49.770;18.760;2023-02-14T09:02:35;99504.46;;;3.81;83.35
75513;BME280;64090;49.770;18.760;2023-02-14T09:06:39;99507.73;;;3.87;82.65
75513;BME280;64090;49.770;18.760;2023-02-14T09:14:04;99514.08;;;4.07;83.16
75513;BME280;64090;49.770;18.760;2023-02-14T09:17:17;99520.27;;;4.13;83.01
75513;BME280;64090;49.770;18.760;2023-02-14T09:20:59;99522.09;;;4.21;81.15
75513;BME280;64090;49.770;18.760;2023-02-14T09:24:41;99517.47;;;4.24;80.42
75513;BME280;64090;49.770;18.760;2023-02-14T09:29:41;99518.40;;;4.35;80.62
75513;BME280;64090;49.770;18.760;2023-02-14T09:33:30;99519.77;;;4.46;79.69
75513;BME280;64090;49.770;18.760;2023-02-14T09:37:21;99522.39;;;4.46;79.28
75513;BME280;64090;49.770;18.760;2023-02-14T09:40:57;99517.76;;;4.60;79.28
75513;BME280;64090;49.770;18.760;2023-02-14T09:44:38;99518.44;;;4.76;77.99
75513;BME280;64090;49.770;18.760;2023-02-14T09:48:23;99513.65;;;4.79;77.72
75513;BME280;64090;49.770;18.760;2023-02-14T09:52:34;99513.91;;;4.89;77.57
75513;BME280;64090;49.770;18.760;2023-02-14T09:56:07;99513.30;;;5.00;76.78
75513;BME280;64090;49.770;18.760;2023-02-14T10:07:15;99508.36;;;4.96;75.85
75513;BME280;64090;49.770;18.760;2023-02-14T10:11:37;99512.02;;;4.97;76.70
75513;BME280;64090;49.770;18.760;2023-02-14T10:15:55;99507.73;;;5.06;75.39
75513;BME280;64090;49.770;18.760;2023-02-14T10:20:31;99506.86;;;5.14;75.87
75513;BME280;64090;49.770;18.760;2023-02-14T10:25:04;99511.66;;;5.33;75.89
75513;BME280;64090;49.770;18.760;2023-02-14T10:28:55;99503.93;;;5.39;74.11
75513;BME280;64090;49.770;18.760;2023-02-14T10:33:22;99508.52;;;5.27;74.39
75513;BME280;64090;49.770;18.760;2023-02-14T10:41:56;99507.49;;;5.51;73.39
75513;BME280;64090;49.770;18.760;2023-02-14T10:51:29;99500.42;;;5.18;74.97
75513;BME280;64090;49.770;18.760;2023-02-14T10:55:53;99504.20;;;5.38;74.86
75513;BME280;64090;49.770;18.760;2023-02-14T11:01:02;99500.91;;;5.50;74.09
75513;BME280;64090;49.770;18.760;2023-02-14T11:10:14;99488.75;;;5.56;75.19
75513;BME280;64090;49.770;18.760;2023-02-14T11:22:03;99479.74;;;5.65;74.18
75513;BME280;64090;49.770;18.760;2023-02-14T11:26:23;99482.94;;;5.74;74.59
75513;BME280;64090;49.770;18.760;2023-02-14T11:30:56;99469.46;;;6.06;74.56
75513;BME280;64090;49.770;18.760;2023-02-14T11:35:17;99476.35;;;6.18;73.89
75513;BME280;64090;49.770;18.760;2023-02-14T11:39:56;99466.90;;;6.29;72.30
75513;BME280;64090;49.770;18.760;2023-02-14T11:44:52;99466.58;;;6.22;71.92
75513;BME280;64090;49.770;18.760;2023-02-14T11:49:31;99461.95;;;6.25;71.02
75513;BME280;64090;49.770;18.760;2023-02-14T11:54:13;99458.98;;;6.21;71.65
75513;BME280;64090;49.770;18.760;2023-02-14T11:58:53;99451.83;;;6.24;71.27
75513;BME280;64090;49.770;18.760;2023-02-14T12:03:25;99450.91;;;6.23;70.67
75513;BME280;64090;49.770;18.760;2023-02-14T12:08:10;99449.00;;;6.20;70.71
75513;BME280;64090;49.770;18.760;2023-02-14T12:12:52;99450.67;;;6.19;70.66
75513;BME280;64090;49.770;18.760;2023-02-14T12:25:22;99440.27;;;6.38;70.57
75513;BME280;64090;49.770;18.760;2023-02-14T12:30:05;99436.57;;;6.41;70.36
75513;BME280;64090;49.770;18.760;2023-02-14T12:34:38;99427.23;;;6.25;70.41
75513;BME280;64090;49.770;18.760;2023-02-14T12:43:55;99422.35;;;6.33;69.83
75513;BME280;64090;49.770;18.760;2023-02-14T12:48:11;99409.13;;;6.21;70.28
75513;BME280;64090;49.770;18.760;2023-02-14T12:52:38;99407.10;;;6.11;70.17
75513;BME280;64090;49.770;18.760;2023-02-14T12:57:03;99400.38;;;6.06;70.38
75513;BME280;64090;49.770;18.760;2023-02-14T13:06:17;99400.66;;;6.17;70.29
75513;BME280;64090;49.770;18.760;2023-02-14T13:10:49;99400.02;;;5.97;70.93
75513;BME280;64090;49.770;18.760;2023-02-14T13:15:20;99400.52;;;5.76;71.66
75513;BME280;64090;49.770;18.760;2023-02-14T13:20:03;99392.77;;;5.75;70.71
75513;BME280;64090;49.770;18.760;2023-02-14T13:24:39;99391.90;;;5.62;70.15
75513;BME280;64090;49.770;18.760;2023-02-14T13:29:09;99389.77;;;5.46;70.20
75513;BME280;64090;49.770;18.760;2023-02-14T13:33:36;99386.83;;;5.27;70.99
75513;BME280;64090;49.770;18.760;2023-02-14T13:37:50;99388.02;;;5.15;71.39
75513;BME280;64090;49.770;18.760;2023-02-14T13:42:51;99384.09;;;5.16;71.99
75513;BME280;64090;49.770;18.760;2023-02-14T13:49:49;99382.14;;;5.22;71.82
75513;BME280;64090;49.770;18.760;2023-02-14T13:54:35;99386.23;;;5.17;71.08
75513;BME280;64090;49.770;18.760;2023-02-14T13:59:27;99384.45;;;5.12;71.63
75513;BME280;64090;49.770;18.760;2023-02-14T14:07:29;99387.13;;;5.03;72.66
75513;BME280;64090;49.770;18.760;2023-02-14T14:20:29;99385.19;;;4.92;73.47
75513;BME280;64090;49.770;18.760;2023-02-14T14:25:02;99391.27;;;4.95;72.69
75513;BME280;64090;49.770;18.760;2023-02-14T14:28:50;99392.52;;;4.91;71.98
75513;BME280;64090;49.770;18.760;2023-02-14T14:33:29;99393.71;;;4.79;71.64
75513;BME280;64090;49.770;18.760;2023-02-14T14:38:11;99392.14;;;4.68;71.86
75513;BME280;64090;49.770;18.760;2023-02-14T14:42:35;99387.56;;;4.57;72.28
75513;BME280;64090;49.770;18.760;2023-02-14T14:47:10;99390.02;;;4.53;72.73
75513;BME280;64090;49.770;18.760;2023-02-14T14:55:23;99390.15;;;4.45;72.76
75513;BME280;64090;49.770;18.760;2023-02-14T15:02:59;99390.42;;;4.31;73.29
75513;BME280;64090;49.770;18.760;2023-02-14T15:06:16;99387.61;;;4.24;73.56
75513;BME280;64090;49.770;18.760;2023-02-14T15:09:34;99391.88;;;4.19;73.64
75513;BME280;64090;49.770;18.760;2023-02-14T15:12:39;99393.31;;;4.17;73.84
75513;BME280;64090;49.770;18.760;2023-02-14T15:16:02;99391.17;;;4.15;73.88
75513;BME280;64090;49.770;18.760;2023-02-14T15:19:14;99390.25;;;4.11;73.96
75513;BME280;64090;49.770;18.760;2023-02-14T15:22:42;99384.46;;;4.06;73.75
75513;BME280;64090;49.770;18.760;2023-02-14T15:25:54;99383.45;;;3.99;73.94
75513;BME280;64090;49.770;18.760;2023-02-14T15:29:05;99390.59;;;3.96;74.14
75513;BME280;64090;49.770;18.760;2023-02-14T15:32:34;99386.24;;;3.91;74.25
75513;BME280;64090;49.770;18.760;2023-02-14T15:35:48;99388.80;;;3.89;74.26
75513;BME280;64090;49.770;18.760;2023-02-14T15:38:55;99389.95;;;3.86;74.32
75513;BME280;64090;49.770;18.760;2023-02-14T15:42:01;99389.18;;;3.82;74.31
75513;BME280;64090;49.770;18.760;2023-02-14T15:48:32;99383.84;;;3.70;74.44
75513;BME280;64090;49.770;18.760;2023-02-14T15:51:37;99382.40;;;3.64;74.68
75513;BME280;64090;49.770;18.760;2023-02-14T15:54:45;99382.08;;;3.57;75.02
75513;BME280;64090;49.770;18.760;2023-02-14T15:58:03;99384.27;;;3.51;75.50
75513;BME280;64090;49.770;18.760;2023-02-14T16:01:20;99384.64;;;3.46;75.60
75513;BME280;64090;49.770;18.760;2023-02-14T16:04:46;99382.20;;;3.42;75.84
75513;BME280;64090;49.770;18.760;2023-02-14T16:07:56;99385.48;;;3.38;76.27
75513;BME280;64090;49.770;18.760;2023-02-14T16:14:32;99395.88;;;3.28;76.53
75513;BME280;64090;49.770;18.760;2023-02-14T16:17:56;99396.66;;;3.24;76.76
75513;BME280;64090;49.770;18.760;2023-02-14T16:21:25;99400.16;;;3.22;76.78
75513;BME280;64090;49.770;18.760;2023-02-14T16:24:47;99410.52;;;3.19;77.13
75513;BME280;64090;49.770;18.760;2023-02-14T16:27:52;99413.20;;;3.17;77.17
75513;BME280;64090;49.770;18.760;2023-02-14T16:31:16;99411.66;;;3.16;77.32
75513;BME280;64090;49.770;18.760;2023-02-14T16:34:21;99412.45;;;3.12;77.41
75513;BME280;64090;49.770;18.760;2023-02-14T16:37:32;99412.79;;;3.11;77.61
75513;BME280;64090;49.770;18.760;2023-02-14T16:40:37;99413.90;;;3.07;77.75
75513;BME280;64090;49.770;18.760;2023-02-14T16:43:45;99418.81;;;3.07;77.68
75513;BME280;64090;49.770;18.760;2023-02-14T16:46:49;99416.34;;;3.08;77.59
75513;BME280;64090;49.770;18.760;2023-02-14T16:49:52;99417.92;;;3.05;77.78
75513;BME280;64090;49.770;18.760;2023-02-14T16:53:21;99420.38;;;3.05;78.04
75513;BME280;64090;49.770;18.760;2023-02-14T16:56:34;99422.12;;;3.00;78.47
75513;BME280;64090;49.770;18.760;2023-02-14T16:59:57;99422.19;;;2.97;78.93
75513;BME280;64090;49.770;18.760;2023-02-14T17:03:05;99428.87;;;2.97;79.31
75513;BME280;64090;49.770;18.760;2023-02-14T17:06:16;99426.55;;;2.95;79.55
75513;BME280;64090;49.770;18.760;2023-02-14T17:09:24;99432.73;;;2.95;79.55
75513;BME280;64090;49.770;18.760;2023-02-14T17:12:32;99432.13;;;2.93;79.78
75513;BME280;64090;49.770;18.760;2023-02-14T17:15:38;99434.71;;;2.91;79.62
75513;BME280;64090;49.770;18.760;2023-02-14T17:18:47;99431.40;;;2.91;79.61
75513;BME280;64090;49.770;18.760;2023-02-14T17:21:52;99428.35;;;2.92;79.79
75513;BME280;64090;49.770;18.760;2023-02-14T17:24:55;99433.48;;;2.91;79.96
75513;BME280;64090;49.770;18.760;2023-02-14T17:28:18;99433.52;;;2.91;79.92
75513;BME280;64090;49.770;18.760;2023-02-14T17:31:50;99430.38;;;2.88;80.45
75513;BME280;64090;49.770;18.760;2023-02-14T17:35:37;99430.36;;;2.84;81.42
75513;BME280;64090;49.770;18.760;2023-02-14T17:39:22;99433.89;;;2.81;81.66
75513;BME280;64090;49.770;18.760;2023-02-14T17:43:06;99430.50;;;2.82;80.68
75513;BME280;64090;49.770;18.760;2023-02-14T17:46:46;99433.81;;;2.82;80.80
75513;BME280;64090;49.770;18.760;2023-02-14T17:53:27;99431.19;;;2.80;80.75
75513;BME280;64090;49.770;18.760;2023-02-14T17:56:33;99434.17;;;2.79;80.87
75513;BME280;64090;49.770;18.760;2023-02-14T17:59:45;99429.63;;;2.79;81.01
75513;BME280;64090;49.770;18.760;2023-02-14T18:02:51;99427.92;;;2.76;80.92
75513;BME280;64090;49.770;18.760;2023-02-14T18:13:21;99426.20;;;2.74;81.57
75513;BME280;64090;49.770;18.760;2023-02-14T18:25:21;99425.97;;;2.77;81.52
75513;BME280;64090;49.770;18.760;2023-02-14T18:28:44;99422.97;;;2.77;81.52
75513;BME280;64090;49.770;18.760;2023-02-14T18:32:10;99424.83;;;2.76;81.44
75513;BME280;64090;49.770;18.760;2023-02-14T18:35:15;99417.56;;;2.77;81.30
75513;BME280;64090;49.770;18.760;2023-02-14T18:38:39;99418.91;;;2.75;81.51
75513;BME280;64090;49.770;18.760;2023-02-14T18:42:48;99417.65;;;2.75;81.54
75513;BME280;64090;49.770;18.760;2023-02-14T18:46:44;99415.10;;;2.75;81.80
75513;BME280;64090;49.770;18.760;2023-02-14T18:49:47;99417.25;;;2.72;81.95
75513;BME280;64090;49.770;18.760;2023-02-14T18:52:51;99417.37;;;2.70;82.00
75513;BME280;64090;49.770;18.760;2023-02-14T18:59:47;99411.79;;;2.65;82.53
75513;BME280;64090;49.770;18.760;2023-02-14T19:02:51;99413.30;;;2.64;82.17
75513;BME280;64090;49.770;18.760;2023-02-14T19:05:58;99408.42;;;2.63;82.17
75513;BME280;64090;49.770;18.760;2023-02-14T19:09:02;99403.59;;;2.62;82.30
75513;BME280;64090;49.770;18.760;2023-02-14T19:12:11;99398.20;;;2.62;82.12
75513;BME280;64090;49.770;18.760;2023-02-14T19:16:40;99394.33;;;2.59;82.23
75513;BME280;64090;49.770;18.760;2023-02-14T19:20:26;99387.92;;;2.58;82.39
75513;BME280;64090;49.770;18.760;2023-02-14T19:23:59;99389.04;;;2.58;82.37
75513;BME280;64090;49.770;18.760;2023-02-14T19:31:00;99392.98;;;2.56;82.45
75513;BME280;64090;49.770;18.760;2023-02-14T19:35:24;99394.81;;;2.55;82.38
75513;BME280;64090;49.770;18.760;2023-02-14T19:39:06;99392.13;;;2.54;82.29
75513;BME280;64090;49.770;18.760;2023-02-14T19:42:32;99392.75;;;2.53;82.26
75513;BME280;64090;49.770;18.760;2023-02-14T19:45:58;99393.02;;;2.52;82.31
75513;BME280;64090;49.770;18.760;2023-02-14T19:49:03;99392.90;;;2.50;82.19
75513;BME280;64090;49.770;18.760;2023-02-14T19:52:13;99392.47;;;2.49;82.31
75513;BME280;64090;49.770;18.760;2023-02-14T19:55:32;99394.27;;;2.49;82.31
75513;BME280;64090;49.770;18.760;2023-02-14T19:59:15;99393.50;;;2.47;82.48
75513;BME280;64090;49.770;18.760;2023-02-14T20:02:23;99393.69;;;2.45;83.10
75513;BME280;64090;49.770;18.760;2023-02-14T20:05:48;99395.45;;;2.42;82.62
75513;BME280;64090;49.770;18.760;2023-02-14T20:08:54;99389.71;;;2.39;82.48
75513;BME280;64090;49.770;18.760;2023-02-14T20:11:58;99385.37;;;2.36;82.61
75513;BME280;64090;49.770;18.760;2023-02-14T20:15:43;99387.27;;;2.34;82.61
75513;BME280;64090;49.770;18.760;2023-02-14T20:18:48;99385.23;;;2.31;82.77
75513;BME280;64090;49.770;18.760;2023-02-14T20:21:52;99388.30;;;2.30;82.54
75513;BME280;64090;49.770;18.760;2023-02-14T20:24:55;99385.61;;;2.28;82.74
75513;BME280;64090;49.770;18.760;2023-02-14T20:27:59;99389.16;;;2.28;82.79
75513;BME280;64090;49.770;18.760;2023-02-14T20:31:07;99388.85;;;2.27;82.75
75513;BME280;64090;49.770;18.760;2023-02-14T20:34:12;99387.95;;;2.25;82.89
75513;BME280;64090;49.770;18.760;2023-02-14T20:37:16;99384.15;;;2.22;82.79
75513;BME280;64090;49.770;18.760;2023-02-14T20:40:20;99385.98;;;2.21;82.98
75513;BME280;64090;49.770;18.760;2023-02-14T20:43:24;99381.09;;;2.16;82.96
75513;BME280;64090;49.770;18.760;2023-02-14T20:46:47;99382.27;;;2.14;82.97
75513;BME280;64090;49.770;18.760;2023-02-14T20:49:51;99376.58;;;2.10;83.01
75513;BME280;64090;49.770;18.760;2023-02-14T20:52:56;99378.17;;;2.08;83.06
75513;BME280;64090;49.770;18.760;2023-02-14T20:55:59;99376.39;;;2.06;83.23